createdAt,value
2023-01-06T00:00:27.574Z,200.48
2023-01-06T00:01:27.558Z,201.84
2023-01-06T00:02:27.496Z,202.58
2023-01-06T00:03:27.417Z,202.83
2023-01-06T00:04:27.458Z,203.21
2023-01-06T00:05:27.419Z,203.21
2023-01-06T00:06:27.469Z,203.34
2023-01-06T00:07:27.395Z,204.73
2023-01-06T00:08:27.378Z,203.09
2023-01-06T00:09:27.355Z,202.83
2023-01-06T00:10:27.335Z,202.83
2023-01-06T00:11:27.334Z,202.96
2023-01-06T00:12:27.329Z,202.46
2023-01-06T00:13:27.295Z,202.83
2023-01-06T00:14:27.291Z,203.97
2023-01-06T00:15:27.310Z,204.86
2023-01-06T00:16:27.313Z,206.15
2023-01-06T00:17:27.282Z,205.12
2023-01-06T00:18:27.261Z,204.35
2023-01-06T00:19:27.241Z,206.93
2023-01-06T00:20:27.237Z,204.48
2023-01-06T00:21:27.237Z,205.37
2023-01-06T00:22:27.224Z,206.15
2023-01-06T00:23:27.195Z,205.76
2023-01-06T00:24:27.187Z,204.22
2023-01-06T00:25:27.190Z,204.10
2023-01-06T00:26:27.193Z,203.21
2023-01-06T00:27:27.164Z,205.12
2023-01-06T00:28:27.142Z,202.09
2023-01-06T00:29:27.129Z,202.96
2023-01-06T00:30:27.148Z,201.71
2023-01-06T00:31:27.214Z,201.96
2023-01-06T00:32:27.109Z,201.59
2023-01-06T00:33:27.095Z,202.83
2023-01-06T00:34:27.078Z,200.97
2023-01-06T00:35:27.074Z,203.84
2023-01-06T00:36:27.102Z,202.33
2023-01-06T00:37:27.066Z,203.72
2023-01-06T00:38:27.034Z,203.72
2023-01-06T00:39:27.035Z,204.10
2023-01-06T00:40:27.020Z,204.60
2023-01-06T00:41:27.004Z,205.37
2023-01-06T00:42:26.998Z,205.37
2023-01-06T00:43:27.010Z,205.63
2023-01-06T00:44:26.990Z,207.06
2023-01-06T00:45:27.000Z,208.90
2023-01-06T00:46:27.035Z,209.84
2023-01-06T00:47:26.943Z,209.84
2023-01-06T00:48:26.925Z,211.19
2023-01-06T00:49:26.944Z,211.60
2023-01-06T00:50:26.903Z,212.01
2023-01-06T00:51:26.914Z,211.33
2023-01-06T00:52:26.883Z,213.11
2023-01-06T00:53:26.921Z,211.87
2023-01-06T00:54:26.889Z,212.56
2023-01-06T00:55:26.859Z,211.05
2023-01-06T00:56:26.835Z,213.11
2023-01-06T00:57:26.852Z,212.97
2023-01-06T00:58:26.809Z,214.36
2023-01-06T00:59:26.834Z,212.28
2023-01-06T01:00:26.793Z,212.42
2023-01-06T01:01:26.968Z,212.83
2023-01-06T01:02:26.941Z,210.65
2023-01-06T01:03:26.768Z,210.11
2023-01-06T01:04:26.778Z,210.24
2023-01-06T01:05:26.750Z,209.17
2023-01-06T01:06:26.732Z,210.11
2023-01-06T01:07:26.746Z,209.97
2023-01-06T01:08:26.715Z,212.28
2023-01-06T01:09:26.707Z,212.28
2023-01-06T01:10:26.717Z,214.36
2023-01-06T01:11:26.687Z,211.46
2023-01-06T01:12:26.689Z,213.66
2023-01-06T01:13:26.709Z,215.07
2023-01-06T01:14:26.660Z,213.94
2023-01-06T01:15:26.648Z,213.11
2023-01-06T01:16:26.627Z,214.22
2023-01-06T01:17:26.616Z,211.87
2023-01-06T01:18:26.623Z,211.87
2023-01-06T01:19:26.606Z,211.87
2023-01-06T01:20:26.617Z,211.46
2023-01-06T01:21:26.575Z,212.28
2023-01-06T01:22:26.557Z,209.57
2023-01-06T01:23:26.566Z,212.42
2023-01-06T01:24:26.558Z,212.56
2023-01-06T01:25:26.542Z,211.46
2023-01-06T01:26:26.524Z,213.25
2023-01-06T01:27:26.525Z,212.28
2023-01-06T01:28:26.495Z,213.66
2023-01-06T01:29:26.486Z,213.53
2023-01-06T01:30:26.531Z,213.39
2023-01-06T01:31:26.560Z,214.08
2023-01-06T01:32:26.457Z,213.39
2023-01-06T01:33:26.489Z,212.42
2023-01-06T01:34:26.423Z,213.11
2023-01-06T01:35:26.467Z,212.01
2023-01-06T01:36:26.446Z,210.92
2023-01-06T01:37:26.424Z,213.66
2023-01-06T01:38:26.415Z,211.74
2023-01-06T01:39:26.384Z,211.46
2023-01-06T01:40:26.416Z,212.15
2023-01-06T01:41:26.373Z,211.19
2023-01-06T01:42:26.357Z,210.92
2023-01-06T01:43:26.352Z,210.38
2023-01-06T01:44:26.330Z,210.92
2023-01-06T01:45:26.320Z,210.78
2023-01-06T01:46:26.337Z,213.11
2023-01-06T01:47:26.316Z,211.74
2023-01-06T01:48:26.308Z,211.87
2023-01-06T01:49:26.263Z,212.28
2023-01-06T01:50:26.269Z,211.46
2023-01-06T01:51:26.274Z,212.15
2023-01-06T01:52:26.231Z,212.42
2023-01-06T01:53:26.233Z,213.53
2023-01-06T01:54:26.222Z,212.70
2023-01-06T01:55:26.231Z,211.33
2023-01-06T01:56:26.221Z,211.74
2023-01-06T01:57:26.179Z,210.65
2023-01-06T01:58:26.170Z,211.46
2023-01-06T01:59:26.172Z,212.70
2023-01-06T02:00:26.174Z,213.39
2023-01-06T02:01:26.205Z,212.83
2023-01-06T02:02:26.267Z,212.97
2023-01-06T02:03:26.117Z,212.56
2023-01-06T02:04:26.124Z,212.97
2023-01-06T02:05:26.121Z,212.01
2023-01-06T02:06:26.110Z,213.66
2023-01-06T02:07:26.092Z,212.28
2023-01-06T02:08:26.076Z,211.46
2023-01-06T02:09:26.060Z,212.01
2023-01-06T02:10:26.041Z,211.87
2023-01-06T02:11:26.054Z,211.60
2023-01-06T02:12:26.021Z,211.74
2023-01-06T02:13:26.032Z,210.92
2023-01-06T02:14:26.001Z,213.39
2023-01-06T02:15:25.995Z,214.22
2023-01-06T02:16:25.993Z,212.56
2023-01-06T02:17:25.986Z,213.11
2023-01-06T02:18:25.949Z,212.28
2023-01-06T02:19:25.971Z,213.25
2023-01-06T02:20:25.945Z,213.11
2023-01-06T02:21:25.913Z,211.46
2023-01-06T02:22:25.923Z,211.60
2023-01-06T02:23:25.915Z,210.38
2023-01-06T02:24:25.909Z,210.51
2023-01-06T02:25:25.894Z,209.97
2023-01-06T02:26:25.879Z,208.64
2023-01-06T02:27:25.875Z,208.90
2023-01-06T02:28:25.896Z,209.04
2023-01-06T02:29:25.830Z,208.90
2023-01-06T02:30:25.835Z,206.67
2023-01-06T02:31:25.872Z,206.15
2023-01-06T02:32:25.790Z,206.41
2023-01-06T02:33:25.824Z,204.35
2023-01-06T02:34:25.791Z,203.84
2023-01-06T02:35:25.892Z,204.22
2023-01-06T02:36:25.780Z,202.96
2023-01-06T02:37:25.740Z,200.60
2023-01-06T02:38:25.757Z,200.60
2023-01-06T02:39:25.734Z,199.26
2023-01-06T02:40:25.730Z,198.06
2023-01-06T02:41:25.717Z,197.58
2023-01-06T02:42:25.680Z,195.46
2023-01-06T02:43:25.716Z,194.77
2023-01-06T02:44:25.717Z,193.50
2023-01-06T02:45:25.671Z,192.48
2023-01-06T02:46:25.684Z,192.03
2023-01-06T02:47:25.640Z,190.69
2023-01-06T02:48:25.679Z,190.25
2023-01-06T02:49:25.649Z,189.04
2023-01-06T02:50:25.601Z,190.47
2023-01-06T02:51:25.597Z,189.15
2023-01-06T02:52:25.578Z,189.48
2023-01-06T02:53:25.600Z,189.48
2023-01-06T02:54:25.564Z,188.72
2023-01-06T02:55:25.609Z,188.07
2023-01-06T02:56:25.541Z,186.57
2023-01-06T02:57:25.535Z,187.53
2023-01-06T02:58:25.520Z,184.99
2023-01-06T02:59:25.542Z,185.83
2023-01-06T03:00:25.520Z,186.24
2023-01-06T03:01:25.574Z,185.01
2023-01-06T03:02:25.455Z,183.58
2023-01-06T03:03:25.459Z,183.38
2023-01-06T03:04:25.480Z,181.98
2023-01-06T03:05:25.482Z,181.78
2023-01-06T03:06:25.426Z,179.24
2023-01-06T03:07:25.457Z,180.21
2023-01-06T03:08:25.424Z,177.15
2023-01-06T03:09:25.409Z,177.53
2023-01-06T03:10:25.398Z,174.74
2023-01-06T03:11:25.392Z,173.65
2023-01-06T03:12:25.347Z,172.93
2023-01-06T03:13:25.405Z,172.93
2023-01-06T03:14:25.398Z,172.93
2023-01-06T03:15:25.326Z,173.47
2023-01-06T03:16:25.351Z,173.11
2023-01-06T03:17:25.297Z,172.21
2023-01-06T03:18:25.282Z,172.21
2023-01-06T03:19:25.281Z,170.98
2023-01-06T03:20:25.291Z,169.93
2023-01-06T03:21:25.285Z,171.15
2023-01-06T03:22:25.257Z,170.80
2023-01-06T03:23:25.248Z,171.51
2023-01-06T03:24:25.267Z,170.80
2023-01-06T03:25:25.250Z,170.98
2023-01-06T03:26:25.208Z,171.15
2023-01-06T03:27:25.210Z,171.15
2023-01-06T03:28:25.206Z,171.68
2023-01-06T03:29:25.180Z,170.45
2023-01-06T03:30:25.172Z,169.59
2023-01-06T03:31:25.175Z,169.59
2023-01-06T03:32:25.142Z,169.42
2023-01-06T03:33:25.142Z,168.73
2023-01-06T03:34:25.121Z,169.93
2023-01-06T03:35:25.148Z,169.93
2023-01-06T03:36:25.106Z,169.07
2023-01-06T03:37:25.103Z,169.24
2023-01-06T03:38:25.074Z,169.59
2023-01-06T03:39:25.078Z,168.90
2023-01-06T03:40:25.059Z,169.76
2023-01-06T03:41:25.047Z,168.22
2023-01-06T03:42:35.806Z,168.22
2023-01-06T03:43:26.041Z,167.54
2023-01-06T03:44:25.119Z,165.88
2023-01-06T03:45:25.028Z,166.21
2023-01-06T03:46:25.027Z,163.92
2023-01-06T03:47:24.976Z,163.60
2023-01-06T03:48:24.986Z,163.76
2023-01-06T03:49:24.948Z,164.41
2023-01-06T03:50:24.957Z,165.39
2023-01-06T03:51:24.958Z,165.06
2023-01-06T03:52:24.916Z,163.92
2023-01-06T03:53:24.922Z,162.33
2023-01-06T03:54:24.906Z,164.09
2023-01-06T03:55:24.956Z,163.12
2023-01-06T03:56:24.923Z,162.17
2023-01-06T03:57:24.897Z,160.46
2023-01-06T03:58:24.887Z,160.15
2023-01-06T03:59:24.909Z,158.32
2023-01-06T04:00:24.856Z,158.32
2023-01-06T04:01:24.961Z,157.58
2023-01-06T04:02:24.807Z,157.28
2023-01-06T04:03:24.846Z,156.10
2023-01-06T04:04:24.793Z,155.67
2023-01-06T04:05:24.821Z,154.94
2023-01-06T04:06:24.805Z,155.38
2023-01-06T04:07:24.748Z,154.37
2023-01-06T04:08:24.806Z,151.57
2023-01-06T04:09:24.856Z,151.02
2023-01-06T04:10:24.741Z,151.57
2023-01-06T04:11:24.734Z,149.66
2023-01-06T04:12:24.717Z,150.20
2023-01-06T04:13:24.691Z,149.13
2023-01-06T04:14:24.714Z,147.81
2023-01-06T04:15:24.691Z,147.16
2023-01-06T04:16:24.752Z,147.29
2023-01-06T04:17:24.648Z,146.90
2023-01-06T04:18:24.640Z,145.74
2023-01-06T04:19:24.623Z,145.49
2023-01-06T04:20:24.607Z,146.25
2023-01-06T04:21:24.615Z,145.36
2023-01-06T04:22:24.588Z,146.25
2023-01-06T04:23:24.593Z,145.62
2023-01-06T04:24:24.581Z,144.48
2023-01-06T04:25:24.572Z,144.98
2023-01-06T04:26:24.578Z,144.86
2023-01-06T04:27:24.543Z,145.36
2023-01-06T04:28:24.537Z,144.98
2023-01-06T04:29:24.511Z,145.74
2023-01-06T04:30:24.507Z,145.36
2023-01-06T04:31:24.523Z,144.60
2023-01-06T04:32:24.496Z,145.74
2023-01-06T04:33:24.494Z,145.23
2023-01-06T04:34:24.459Z,144.60
2023-01-06T04:35:24.448Z,144.23
2023-01-06T04:36:24.685Z,144.48
2023-01-06T04:37:24.439Z,143.61
2023-01-06T04:38:24.423Z,142.99
2023-01-06T04:39:24.419Z,141.78
2023-01-06T04:40:24.430Z,141.06
2023-01-06T04:41:24.421Z,139.88
2023-01-06T04:42:24.388Z,140.11
2023-01-06T04:43:24.381Z,140.11
2023-01-06T04:44:24.350Z,139.29
2023-01-06T04:45:24.399Z,139.18
2023-01-06T04:46:24.352Z,138.37
2023-01-06T04:47:24.314Z,138.83
2023-01-06T04:48:24.327Z,138.14
2023-01-06T04:49:24.284Z,138.71
2023-01-06T04:50:24.297Z,138.49
2023-01-06T04:51:24.288Z,138.37
2023-01-06T04:52:24.310Z,138.26
2023-01-06T04:53:24.262Z,137.57
2023-01-06T04:54:24.279Z,136.67
2023-01-06T04:55:24.224Z,135.89
2023-01-06T04:56:26.635Z,135.67
2023-01-06T04:57:24.213Z,135.67
2023-01-06T04:58:24.220Z,135.34
2023-01-06T04:59:24.198Z,134.68
2023-01-06T05:00:24.170Z,133.93
2023-01-06T05:01:24.332Z,134.14
2023-01-06T05:02:24.158Z,134.58
2023-01-06T05:03:24.183Z,133.82
2023-01-06T05:04:24.164Z,133.82
2023-01-06T05:05:24.149Z,132.54
2023-01-06T05:06:24.143Z,133.71
2023-01-06T05:07:24.155Z,133.50
2023-01-06T05:08:24.187Z,133.50
2023-01-06T05:09:24.123Z,133.82
2023-01-06T05:10:24.075Z,133.29
2023-01-06T05:11:24.063Z,133.07
2023-01-06T05:12:24.082Z,133.18
2023-01-06T05:13:24.098Z,132.76
2023-01-06T05:14:24.515Z,133.50
2023-01-06T05:15:25.396Z,132.97
2023-01-06T05:16:24.084Z,132.97
2023-01-06T05:17:24.057Z,132.86
2023-01-06T05:18:24.092Z,132.65
2023-01-06T05:19:24.060Z,132.76
2023-01-06T05:20:24.063Z,132.97
2023-01-06T05:21:24.002Z,133.18
2023-01-06T05:22:23.951Z,132.97
2023-01-06T05:23:23.991Z,132.97
2023-01-06T05:24:24.056Z,132.76
2023-01-06T05:25:23.923Z,132.12
2023-01-06T05:26:24.078Z,133.50
2023-01-06T05:27:23.975Z,133.07
2023-01-06T05:28:23.910Z,133.18
2023-01-06T05:29:23.860Z,132.65
2023-01-06T05:30:23.842Z,133.07
2023-01-06T05:31:23.905Z,132.54
2023-01-06T05:32:23.883Z,132.54
2023-01-06T05:33:23.822Z,132.23
2023-01-06T05:34:23.853Z,132.23
2023-01-06T05:35:23.841Z,131.92
2023-01-06T05:36:23.801Z,132.23
2023-01-06T05:37:23.811Z,132.97
2023-01-06T05:38:23.792Z,132.76
2023-01-06T05:39:23.873Z,132.86
2023-01-06T05:40:23.777Z,133.61
2023-01-06T05:41:23.742Z,132.97
2023-01-06T05:42:23.731Z,133.93
2023-01-06T05:43:23.798Z,134.36
2023-01-06T05:44:23.733Z,134.58
2023-01-06T05:45:23.805Z,134.47
2023-01-06T05:46:23.696Z,134.36
2023-01-06T05:47:23.683Z,135.67
2023-01-06T05:48:23.863Z,135.89
2023-01-06T05:49:23.725Z,136.11
2023-01-06T05:50:23.714Z,135.78
2023-01-06T05:51:23.657Z,135.45
2023-01-06T05:52:23.625Z,136.56
2023-01-06T05:53:23.706Z,136.22
2023-01-06T05:54:23.645Z,136.90
2023-01-06T05:55:23.593Z,137.01
2023-01-06T05:56:23.582Z,136.22
2023-01-06T05:57:23.579Z,135.67
2023-01-06T05:58:23.571Z,136.22
2023-01-06T05:59:23.630Z,135.67
2023-01-06T06:00:23.537Z,134.79
2023-01-06T06:01:23.608Z,134.68
2023-01-06T06:02:23.523Z,134.14
2023-01-06T06:03:23.675Z,133.29
2023-01-06T06:04:23.569Z,132.44
2023-01-06T06:05:23.530Z,132.54
2023-01-06T06:06:23.523Z,131.81
2023-01-06T06:07:23.539Z,132.34
2023-01-06T06:08:23.529Z,130.57
2023-01-06T06:09:23.487Z,131.29
2023-01-06T06:10:23.474Z,130.07
2023-01-06T06:11:23.459Z,129.76
2023-01-06T06:12:23.399Z,130.27
2023-01-06T06:13:24.485Z,129.66
2023-01-06T06:14:23.376Z,128.66
2023-01-06T06:15:23.355Z,129.36
2023-01-06T06:16:23.465Z,127.87
2023-01-06T06:17:23.419Z,127.78
2023-01-06T06:18:23.380Z,127.78
2023-01-06T06:19:23.341Z,127.29
2023-01-06T06:20:23.316Z,125.85
2023-01-06T06:21:23.311Z,125.19
2023-01-06T06:22:23.273Z,124.25
2023-01-06T06:23:23.257Z,123.70
2023-01-06T06:24:23.315Z,122.88
2023-01-06T06:25:23.277Z,123.06
2023-01-06T06:26:23.239Z,122.79
2023-01-06T06:27:23.222Z,122.43
2023-01-06T06:28:23.231Z,122.16
2023-01-06T06:29:23.256Z,121.54
2023-01-06T06:30:23.205Z,122.97
2023-01-06T06:31:23.292Z,122.16
2023-01-06T06:32:23.228Z,121.72
2023-01-06T06:33:23.165Z,121.36
2023-01-06T06:34:23.216Z,122.34
2023-01-06T06:35:23.191Z,122.07
2023-01-06T06:36:23.150Z,122.25
2023-01-06T06:37:23.116Z,121.98
2023-01-06T06:38:23.092Z,122.16
2023-01-06T06:39:23.118Z,123.25
2023-01-06T06:40:23.189Z,122.43
2023-01-06T06:41:23.073Z,123.25
2023-01-06T06:42:23.051Z,123.43
2023-01-06T06:43:23.140Z,124.63
2023-01-06T06:44:23.035Z,124.44
2023-01-06T06:45:23.133Z,124.81
2023-01-06T06:46:23.054Z,125.19
2023-01-06T06:47:23.031Z,125.00
2023-01-06T06:48:23.000Z,125.28
2023-01-06T06:49:22.974Z,126.23
2023-01-06T06:50:22.995Z,125.85
2023-01-06T06:51:22.977Z,125.94
2023-01-06T06:52:23.016Z,125.28
2023-01-06T06:53:22.992Z,126.04
2023-01-06T06:54:22.928Z,126.13
2023-01-06T06:55:22.960Z,126.23
2023-01-06T06:56:22.914Z,126.52
2023-01-06T06:57:22.934Z,125.94
2023-01-06T06:58:22.917Z,126.13
2023-01-06T06:59:22.881Z,125.56
2023-01-06T07:00:22.891Z,126.13
2023-01-06T07:01:22.930Z,126.42
2023-01-06T07:02:22.925Z,126.61
2023-01-06T07:03:22.867Z,126.42
2023-01-06T07:04:22.917Z,127.09
2023-01-06T07:05:22.897Z,127.19
2023-01-06T07:06:22.806Z,126.42
2023-01-06T07:07:22.828Z,127.09
2023-01-06T07:08:22.807Z,127.00
2023-01-06T07:09:22.806Z,127.39
2023-01-06T07:10:22.787Z,127.39
2023-01-06T07:11:22.750Z,128.37
2023-01-06T07:12:22.742Z,128.37
2023-01-06T07:13:22.746Z,128.07
2023-01-06T07:14:22.709Z,129.06
2023-01-06T07:15:22.730Z,129.26
2023-01-06T07:16:22.694Z,129.66
2023-01-06T07:17:22.720Z,130.68
2023-01-06T07:18:30.419Z,130.37
2023-01-06T07:19:22.660Z,130.47
2023-01-06T07:20:22.671Z,130.57
2023-01-06T07:21:22.632Z,131.60
2023-01-06T07:22:22.624Z,130.99
2023-01-06T07:23:22.600Z,131.40
2023-01-06T07:24:22.593Z,132.12
2023-01-06T07:25:22.573Z,132.34
2023-01-06T07:26:22.569Z,132.34
2023-01-06T07:27:22.573Z,132.97
2023-01-06T07:28:22.575Z,132.76
2023-01-06T07:29:22.534Z,132.65
2023-01-06T07:30:22.537Z,132.76
2023-01-06T07:31:22.592Z,132.86
2023-01-06T07:32:22.508Z,132.54
2023-01-06T07:33:22.522Z,132.65
2023-01-06T07:34:22.483Z,132.34
2023-01-06T07:35:22.480Z,132.44
2023-01-06T07:36:22.463Z,131.81
2023-01-06T07:37:22.445Z,131.40
2023-01-06T07:38:22.480Z,131.71
2023-01-06T07:39:22.417Z,130.88
2023-01-06T07:40:22.411Z,130.57
2023-01-06T07:41:22.412Z,129.66
2023-01-06T07:42:22.416Z,129.96
2023-01-06T07:43:22.372Z,128.76
2023-01-06T07:44:22.382Z,128.46
2023-01-06T07:45:22.381Z,128.37
2023-01-06T07:46:22.499Z,127.78
2023-01-06T07:47:22.346Z,127.97
2023-01-06T07:48:22.356Z,126.90
2023-01-06T07:49:22.318Z,126.13
2023-01-06T07:50:22.329Z,124.53
2023-01-06T07:51:22.352Z,124.44
2023-01-06T07:52:22.304Z,123.25
2023-01-06T07:53:22.283Z,122.34
2023-01-06T07:54:22.294Z,120.49
2023-01-06T07:55:22.249Z,119.62
2023-01-06T07:56:22.254Z,118.52
2023-01-06T07:57:22.222Z,117.02
2023-01-06T07:58:22.249Z,115.32
2023-01-06T07:59:22.201Z,113.68
2023-01-06T08:00:22.217Z,111.85
2023-01-06T08:01:22.270Z,111.03
2023-01-06T08:02:22.267Z,109.64
2023-01-06T08:03:22.240Z,109.00
2023-01-06T08:04:22.147Z,107.66
2023-01-06T08:05:22.182Z,107.18
2023-01-06T08:06:22.130Z,106.56
2023-01-06T08:07:22.120Z,105.82
2023-01-06T08:08:22.135Z,105.02
2023-01-06T08:09:22.104Z,104.56
2023-01-06T08:10:22.115Z,103.65
2023-01-06T08:11:22.094Z,102.82
2023-01-06T08:12:22.088Z,100.95
2023-01-06T08:13:22.059Z,99.57
2023-01-06T08:14:22.046Z,98.10
2023-01-06T08:15:22.032Z,97.13
2023-01-06T08:16:22.044Z,95.47
2023-01-06T08:17:22.060Z,94.87
2023-01-06T08:18:22.009Z,95.87
2023-01-06T08:19:21.989Z,94.57
2023-01-06T08:20:21.983Z,93.51
2023-01-06T08:21:21.996Z,92.99
2023-01-06T08:22:21.952Z,92.06
2023-01-06T08:23:21.982Z,91.26
2023-01-06T08:24:21.932Z,90.66
2023-01-06T08:25:21.930Z,90.46
2023-01-06T08:26:21.932Z,89.98
2023-01-06T08:27:21.915Z,90.56
2023-01-06T08:28:21.905Z,89.88
2023-01-06T08:29:21.896Z,89.98
2023-01-06T08:30:22.085Z,90.56
2023-01-06T08:31:21.951Z,90.96
2023-01-06T08:32:21.859Z,91.66
2023-01-06T08:33:21.833Z,92.16
2023-01-06T08:34:21.831Z,92.37
2023-01-06T08:35:21.855Z,93.19
2023-01-06T08:36:21.841Z,93.61
2023-01-06T08:37:21.826Z,94.03
2023-01-06T08:38:21.812Z,94.25
2023-01-06T08:39:21.794Z,94.25
2023-01-06T08:40:21.815Z,94.67
2023-01-06T08:41:21.778Z,94.35
2023-01-06T08:42:21.774Z,94.78
2023-01-06T08:43:21.756Z,94.67
2023-01-06T08:44:22.134Z,94.89
2023-01-06T08:45:21.745Z,95.43
2023-01-06T08:46:21.765Z,95.65
2023-01-06T08:47:21.701Z,95.43
2023-01-06T08:48:21.690Z,95.87
2023-01-06T08:49:21.681Z,94.07
2023-01-06T08:50:21.678Z,94.17
2023-01-06T08:51:21.633Z,94.44
2023-01-06T08:52:21.649Z,94.76
2023-01-06T08:53:21.639Z,95.41
2023-01-06T08:54:21.780Z,96.51
2023-01-06T08:55:21.629Z,96.96
2023-01-06T08:56:21.624Z,97.25
2023-01-06T08:57:21.620Z,98.33
2023-01-06T08:58:21.596Z,99.27
2023-01-06T08:59:21.547Z,99.75
2023-01-06T09:00:21.544Z,101.38
2023-01-06T09:01:21.634Z,102.57
2023-01-06T09:02:21.588Z,103.84
2023-01-06T09:03:21.517Z,105.22
2023-01-06T09:04:21.532Z,106.56
2023-01-06T09:05:21.533Z,107.52
2023-01-06T09:06:21.500Z,109.00
2023-01-06T09:07:21.489Z,110.44
2023-01-06T09:08:21.476Z,111.55
2023-01-06T09:09:21.458Z,113.37
2023-01-06T09:10:21.440Z,113.83
2023-01-06T09:11:21.433Z,115.25
2023-01-06T09:12:21.405Z,115.89
2023-01-06T09:13:21.432Z,116.78
2023-01-06T09:14:21.380Z,117.85
2023-01-06T09:15:21.379Z,119.11
2023-01-06T09:16:21.486Z,120.31
2023-01-06T09:17:21.364Z,122.70
2023-01-06T09:18:21.369Z,123.52
2023-01-06T09:19:21.348Z,125.00
2023-01-06T09:20:21.321Z,126.42
2023-01-06T09:21:21.342Z,127.87
2023-01-06T09:22:21.306Z,129.76
2023-01-06T09:23:21.315Z,131.60
2023-01-06T09:24:21.320Z,132.76
2023-01-06T09:25:21.319Z,134.68
2023-01-06T09:26:21.283Z,136.11
2023-01-06T09:27:22.856Z,136.78
2023-01-06T09:28:21.235Z,137.80
2023-01-06T09:29:21.244Z,138.49
2023-01-06T09:30:21.214Z,139.64
2023-01-06T09:31:21.285Z,140.35
2023-01-06T09:32:21.211Z,142.38
2023-01-06T09:33:21.204Z,143.12
2023-01-06T09:34:21.234Z,145.74
2023-01-06T09:35:21.162Z,145.87
2023-01-06T09:36:21.269Z,148.60
2023-01-06T09:37:21.171Z,149.66
2023-01-06T09:38:21.176Z,151.02
2023-01-06T09:39:21.151Z,154.23
2023-01-06T09:40:21.110Z,155.38
2023-01-06T09:41:21.149Z,158.48
2023-01-06T09:42:21.104Z,159.69
2023-01-06T09:43:21.103Z,160.30
2023-01-06T09:44:22.335Z,161.70
2023-01-06T09:45:21.084Z,163.44
2023-01-06T09:46:21.085Z,165.06
2023-01-06T09:47:21.068Z,165.71
2023-01-06T09:48:21.047Z,167.54
2023-01-06T09:49:21.014Z,168.05
2023-01-06T09:50:21.750Z,169.59
2023-01-06T09:51:21.001Z,171.86
2023-01-06T09:52:20.982Z,172.39
2023-01-06T09:53:20.968Z,173.47
2023-01-06T09:54:20.963Z,174.37
2023-01-06T09:55:20.948Z,176.96
2023-01-06T09:56:20.939Z,179.05
2023-01-06T09:57:20.921Z,181.19
2023-01-06T09:58:20.935Z,181.58
2023-01-06T09:59:20.901Z,183.78
2023-01-06T10:00:20.941Z,184.99
2023-01-06T10:01:20.971Z,186.36
2023-01-06T10:02:20.924Z,187.64
2023-01-06T10:03:20.933Z,190.47
2023-01-06T10:04:20.847Z,192.93
2023-01-06T10:05:20.843Z,196.40
2023-01-06T10:06:20.989Z,197.46
2023-01-06T10:07:20.796Z,199.50
2023-01-06T10:08:20.802Z,203.09
2023-01-06T10:09:20.817Z,204.86
2023-01-06T10:10:22.285Z,205.63
2023-01-06T10:11:20.759Z,207.32
2023-01-06T10:12:20.763Z,210.11
2023-01-06T10:13:20.752Z,209.71
2023-01-06T10:14:20.724Z,211.19
2023-01-06T10:15:20.760Z,214.93
2023-01-06T10:16:20.748Z,216.49
2023-01-06T10:17:20.707Z,218.94
2023-01-06T10:18:20.699Z,222.35
2023-01-06T10:19:20.835Z,222.35
2023-01-06T10:20:20.763Z,224.18
2023-01-06T10:21:20.651Z,225.56
2023-01-06T10:22:20.650Z,229.03
2023-01-06T10:23:20.642Z,231.78
2023-01-06T10:24:20.626Z,235.27
2023-01-06T10:25:20.632Z,239.56
2023-01-06T10:26:20.592Z,240.26
2023-01-06T10:27:20.596Z,243.47
2023-01-06T10:28:20.615Z,246.40
2023-01-06T10:29:20.557Z,248.83
2023-01-06T10:30:20.667Z,249.77
2023-01-06T10:31:20.572Z,250.92
2023-01-06T10:32:20.530Z,255.41
2023-01-06T10:33:20.522Z,256.01
2023-01-06T10:34:20.515Z,258.43
2023-01-06T10:35:20.521Z,260.69
2023-01-06T10:36:20.497Z,261.10
2023-01-06T10:37:20.497Z,261.52
2023-01-06T10:38:20.459Z,259.25
2023-01-06T10:39:20.486Z,262.36
2023-01-06T10:40:20.437Z,262.57
2023-01-06T10:41:20.458Z,264.05
2023-01-06T10:42:20.468Z,264.68
2023-01-06T10:43:20.418Z,266.40
2023-01-06T10:44:20.412Z,266.19
2023-01-06T10:45:22.257Z,268.36
2023-01-06T10:46:20.423Z,269.69
2023-01-06T10:47:20.363Z,270.80
2023-01-06T10:48:20.392Z,273.51
2023-01-06T10:49:20.343Z,272.15
2023-01-06T10:50:20.363Z,273.05
2023-01-06T10:51:20.339Z,275.35
2023-01-06T10:52:20.305Z,275.35
2023-01-06T10:53:20.317Z,278.62
2023-01-06T10:54:20.288Z,276.27
2023-01-06T10:55:20.277Z,277.67
2023-01-06T10:56:20.262Z,279.09
2023-01-06T10:57:20.262Z,280.29
2023-01-06T10:58:20.262Z,280.76
2023-01-06T10:59:20.249Z,282.94
2023-01-06T11:00:20.232Z,282.70
2023-01-06T11:01:20.289Z,283.92
2023-01-06T11:02:20.339Z,285.40
2023-01-06T11:03:32.783Z,287.91
2023-01-06T11:04:21.191Z,289.69
2023-01-06T11:05:20.178Z,292.79
2023-01-06T11:06:20.152Z,292.01
2023-01-06T11:07:20.169Z,292.01
2023-01-06T11:08:20.141Z,293.58
2023-01-06T11:09:20.119Z,295.16
2023-01-06T11:10:20.125Z,297.84
2023-01-06T11:11:28.236Z,297.03
2023-01-06T11:12:21.107Z,300.02
2023-01-06T11:13:20.176Z,299.20
2023-01-06T11:14:20.061Z,302.79
2023-01-06T11:15:20.056Z,300.84
2023-01-06T11:16:20.100Z,302.79
2023-01-06T11:17:20.057Z,304.47
2023-01-06T11:18:20.027Z,302.23
2023-01-06T11:19:20.023Z,305.89
2023-01-06T11:20:20.001Z,303.07
2023-01-06T11:21:19.991Z,303.07
2023-01-06T11:22:20.009Z,304.47
2023-01-06T11:23:19.978Z,304.76
2023-01-06T11:24:20.005Z,305.32
2023-01-06T11:25:19.944Z,305.61
2023-01-06T11:26:20.108Z,303.35
2023-01-06T11:27:19.930Z,305.32
2023-01-06T11:28:19.994Z,305.32
2023-01-06T11:29:19.896Z,303.91
2023-01-06T11:30:19.891Z,306.75
2023-01-06T11:31:19.941Z,299.47
2023-01-06T11:32:19.881Z,294.89
2023-01-06T11:33:19.893Z,292.53
2023-01-06T11:34:19.887Z,286.15
2023-01-06T11:35:19.849Z,277.91
2023-01-06T11:36:19.842Z,275.58
2023-01-06T11:37:19.851Z,274.88
2023-01-06T11:38:19.828Z,272.15
2023-01-06T11:39:19.826Z,271.02
2023-01-06T11:40:19.793Z,269.02
2023-01-06T11:41:19.805Z,268.58
2023-01-06T11:42:19.778Z,269.02
2023-01-06T11:43:19.818Z,268.80
2023-01-06T11:44:19.776Z,265.97
2023-01-06T11:45:19.726Z,267.27
2023-01-06T11:46:19.803Z,269.24
2023-01-06T11:47:19.705Z,269.02
2023-01-06T11:48:19.701Z,267.71
2023-01-06T11:49:20.398Z,267.27
2023-01-06T11:50:19.686Z,268.14
2023-01-06T11:51:19.665Z,267.05
2023-01-06T11:52:19.688Z,269.91
2023-01-06T11:53:19.900Z,270.35
2023-01-06T11:54:19.629Z,273.51
2023-01-06T11:55:19.630Z,276.04
2023-01-06T11:56:19.609Z,277.91
2023-01-06T11:57:19.597Z,281.01
2023-01-06T11:58:19.588Z,282.21
2023-01-06T11:59:19.570Z,284.42
2023-01-06T12:00:19.583Z,283.92
2023-01-06T12:01:19.627Z,286.15
2023-01-06T12:02:19.573Z,287.91
2023-01-06T12:03:19.631Z,288.42
2023-01-06T12:04:19.537Z,293.05
2023-01-06T12:05:19.535Z,292.79
2023-01-06T12:06:19.493Z,295.43
2023-01-06T12:07:19.487Z,297.03
2023-01-06T12:08:19.486Z,299.47
2023-01-06T12:09:19.507Z,298.38
2023-01-06T12:10:19.589Z,300.02
2023-01-06T12:11:19.476Z,299.74
2023-01-06T12:12:19.450Z,300.57
2023-01-06T12:13:19.420Z,303.07
2023-01-06T12:14:28.359Z,302.23
2023-01-06T12:15:20.403Z,304.47
2023-01-06T12:16:19.459Z,302.51
2023-01-06T12:17:19.570Z,303.07
2023-01-06T12:18:19.374Z,304.19
2023-01-06T12:19:19.360Z,306.46
2023-01-06T12:20:19.361Z,309.35
2023-01-06T12:21:19.351Z,308.77
2023-01-06T12:22:19.464Z,305.89
2023-01-06T12:23:19.335Z,306.18
2023-01-06T12:24:19.295Z,306.75
2023-01-06T12:25:19.288Z,309.06
2023-01-06T12:26:19.308Z,308.19
2023-01-06T12:27:19.305Z,311.11
2023-01-06T12:28:19.254Z,311.11
2023-01-06T12:29:19.286Z,310.82